Time;durP1;ratioP1;P1;durP2;ratioP2;P2;SDS_P1;SDS_P2;PMS_P1;PMS_P2;Temp;Humidity;BMP_temperature;BMP_pressure;BME280_temperature;BME280_humidity;BME280_pressure;Samples;Min_cycle;Max_cycle;Signal;HPM_P1;HPM_P2
2024/01/23 00:01:43;;;;;;;17.95;4.05;;;;;;;;;;4980689;28;20045;-68
2024/01/23 00:04:10;;;;;;;16.98;2.72;;;;;;;;;;4982227;28;20042;-68
2024/01/23 00:06:36;;;;;;;15.82;3.47;;;;;;;;;;4980684;28;20028;-68
2024/01/23 00:09:02;;;;;;;19.65;4.15;;;;;;;;;;4982245;28;20034;-68
2024/01/23 00:11:28;;;;;;;18.00;3.50;;;;;;;;;;4981043;28;20104;-68
2024/01/23 00:13:54;;;;;;;14.45;3.22;;;;;;;;;;4981908;28;20034;-68
2024/01/23 00:16:20;;;;;;;17.63;2.83;;;;;;;;;;4980503;28;20047;-68
2024/01/23 00:18:46;;;;;;;21.83;3.38;;;;;;;;;;4980995;28;20045;-68
2024/01/23 00:21:12;;;;;;;18.13;3.55;;;;;;;;;;4981593;28;20030;-68
2024/01/23 00:23:38;;;;;;;17.95;3.42;;;;;;;;;;4981763;28;20049;-68
2024/01/23 00:26:04;;;;;;;25.42;3.72;;;;;;;;;;4979938;28;20593;-68
2024/01/23 00:28:31;;;;;;;20.63;3.58;;;;;;;;;;4981313;28;20381;-68
2024/01/23 00:30:57;;;;;;;20.17;3.33;;;;;;;;;;4979514;28;20022;-68
2024/01/23 00:33:23;;;;;;;15.65;3.35;;;;;;;;;;4981526;28;20038;-68
2024/01/23 00:35:49;;;;;;;21.23;4.57;;;;;;;;;;4964465;28;20041;-68
2024/01/23 00:38:15;;;;;;;20.98;3.25;;;;;;;;;;4981496;28;20034;-68
2024/01/23 00:40:41;;;;;;;18.88;3.08;;;;;;;;;;4981948;28;20193;-68
2024/01/23 00:43:07;;;;;;;19.17;3.28;;;;;;;;;;4981671;28;20042;-68
2024/01/23 00:45:33;;;;;;;20.83;3.40;;;;;;;;;;4981134;28;20049;-68
2024/01/23 00:48:00;;;;;;;18.48;3.45;;;;;;;;;;4979175;28;20045;-68
2024/01/23 00:50:26;;;;;;;17.30;3.28;;;;;;;;;;4981627;28;20027;-68
2024/01/23 00:52:52;;;;;;;23.52;3.58;;;;;;;;;;4979878;28;20034;-68
2024/01/23 00:55:18;;;;;;;15.52;3.00;;;;;;;;;;4980050;28;20049;-68
2024/01/23 00:57:44;;;;;;;20.73;3.20;;;;;;;;;;4980146;28;20038;-68
2024/01/23 01:00:10;;;;;;;16.25;3.30;;;;;;;;;;4979092;28;20038;-68
2024/01/23 01:02:36;;;;;;;16.52;2.75;;;;;;;;;;4979172;28;20509;-68
2024/01/23 01:05:02;;;;;;;16.63;3.22;;;;;;;;;;4979995;28;20042;-68
2024/01/23 01:07:28;;;;;;;21.00;4.03;;;;;;;;;;4978656;28;20076;-68
2024/01/23 01:09:55;;;;;;;16.95;3.45;;;;;;;;;;4978699;28;20168;-68
2024/01/23 01:12:21;;;;;;;13.15;3.60;;;;;;;;;;4967251;28;20833;-68
2024/01/23 01:14:47;;;;;;;21.60;3.30;;;;;;;;;;4977781;28;20030;-67
2024/01/23 01:17:13;;;;;;;23.17;3.42;;;;;;;;;;4979604;28;20168;-68
2024/01/23 01:19:39;;;;;;;13.80;3.45;;;;;;;;;;4979965;28;20044;-68
2024/01/23 01:22:05;;;;;;;30.02;4.32;;;;;;;;;;4963970;28;20460;-68
2024/01/23 01:24:32;;;;;;;18.58;4.43;;;;;;;;;;4979159;28;20043;-68
2024/01/23 01:26:58;;;;;;;20.00;3.22;;;;;;;;;;4980777;28;20026;-68
2024/01/23 01:29:24;;;;;;;16.90;2.80;;;;;;;;;;4979656;28;20117;-68
2024/01/23 01:31:50;;;;;;;22.67;3.28;;;;;;;;;;4978799;28;20049;-68
2024/01/23 01:34:16;;;;;;;16.45;3.40;;;;;;;;;;4980251;28;20039;-68
2024/01/23 01:36:42;;;;;;;16.17;3.10;;;;;;;;;;4980124;28;20042;-68
2024/01/23 01:39:12;;;;;;;22.02;4.85;;;;;;;;;;4980018;28;20022;-68
2024/01/23 01:41:38;;;;;;;21.73;3.00;;;;;;;;;;4980615;28;20044;-68
2024/01/23 01:44:04;;;;;;;16.67;3.40;;;;;;;;;;4980107;28;20036;-68
2024/01/23 01:46:30;;;;;;;22.13;4.10;;;;;;;;;;4978752;28;20098;-68
2024/01/23 01:48:56;;;;;;;21.45;3.60;;;;;;;;;;4980323;28;20608;-68
2024/01/23 01:51:24;;;;;;;17.92;3.65;;;;;;;;;;4982246;28;20045;-67
2024/01/23 01:53:50;;;;;;;23.80;3.65;;;;;;;;;;4984601;28;20481;-67
2024/01/23 01:56:18;;;;;;;17.13;3.78;;;;;;;;;;4983572;28;20658;-67
2024/01/23 01:58:44;;;;;;;20.08;3.70;;;;;;;;;;4983222;28;20113;-67
2024/01/23 02:01:10;;;;;;;20.90;3.22;;;;;;;;;;4967037;28;20045;-67
2024/01/23 02:03:37;;;;;;;23.60;4.03;;;;;;;;;;4982702;28;20049;-67
2024/01/23 02:06:04;;;;;;;19.52;3.75;;;;;;;;;;4983718;28;20112;-67
2024/01/23 02:08:30;;;;;;;22.63;4.18;;;;;;;;;;4982342;28;20038;-67
2024/01/23 02:10:56;;;;;;;25.98;4.25;;;;;;;;;;4963872;28;20642;-67
2024/01/23 02:13:26;;;;;;;29.67;3.88;;;;;;;;;;4982338;28;20971;-67
2024/01/23 02:15:52;;;;;;;20.50;3.65;;;;;;;;;;4984250;28;20041;-67
2024/01/23 02:18:18;;;;;;;25.00;3.90;;;;;;;;;;4982031;28;20072;-67
2024/01/23 02:20:44;;;;;;;21.75;3.72;;;;;;;;;;4984345;28;20038;-67
2024/01/23 02:23:16;;;;;;;19.00;3.80;;;;;;;;;;4982419;28;20599;-67
2024/01/23 02:25:43;;;;;;;23.17;3.85;;;;;;;;;;4982744;28;21042;-67
2024/01/23 02:28:10;;;;;;;23.50;3.78;;;;;;;;;;4982212;28;20027;-67
2024/01/23 02:30:36;;;;;;;16.80;3.35;;;;;;;;;;4983817;28;20786;-67
2024/01/23 02:33:05;;;;;;;21.50;3.80;;;;;;;;;;4981585;28;20026;-67
2024/01/23 02:35:31;;;;;;;22.25;3.75;;;;;;;;;;4981083;28;20038;-67
2024/01/23 02:37:58;;;;;;;18.88;3.22;;;;;;;;;;4982894;28;20046;-67
2024/01/23 02:40:24;;;;;;;23.23;4.28;;;;;;;;;;4982589;28;20834;-67
2024/01/23 02:42:50;;;;;;;19.38;3.33;;;;;;;;;;4982486;28;20034;-67
2024/01/23 02:45:16;;;;;;;22.58;4.07;;;;;;;;;;4981486;28;20053;-67
2024/01/23 02:47:42;;;;;;;15.93;3.50;;;;;;;;;;4982558;28;20489;-67
2024/01/23 02:50:08;;;;;;;26.77;4.43;;;;;;;;;;4981974;28;20034;-67
2024/01/23 02:52:35;;;;;;;20.48;3.65;;;;;;;;;;4982518;28;20141;-67
2024/01/23 02:55:01;;;;;;;17.55;3.83;;;;;;;;;;4981371;28;20033;-67
2024/01/23 02:57:27;;;;;;;31.08;4.95;;;;;;;;;;4982585;28;20036;-67
2024/01/23 02:59:54;;;;;;;20.02;3.60;;;;;;;;;;4982033;28;20374;-67
2024/01/23 03:02:21;;;;;;;24.27;4.60;;;;;;;;;;4980739;28;20039;-67
2024/01/23 03:04:47;;;;;;;22.60;4.30;;;;;;;;;;4982004;28;20086;-67
2024/01/23 03:07:13;;;;;;;26.05;4.50;;;;;;;;;;4968648;28;20042;-67
2024/01/23 03:09:39;;;;;;;25.77;4.55;;;;;;;;;;4980680;28;20156;-67
2024/01/23 03:12:18;;;;;;;22.70;4.70;;;;;;;;;;4981919;28;20438;-68
2024/01/23 03:14:45;;;;;;;20.10;3.63;;;;;;;;;;4982567;28;20029;-67
2024/01/23 03:17:12;;;;;;;29.42;5.43;;;;;;;;;;4978685;28;20034;-67
2024/01/23 03:19:38;;;;;;;21.77;3.58;;;;;;;;;;4966728;28;20860;-67
2024/01/23 03:22:04;;;;;;;21.25;4.13;;;;;;;;;;4982034;28;20066;-67
2024/01/23 03:24:30;;;;;;;22.13;3.85;;;;;;;;;;4984176;28;20065;-67
2024/01/23 03:26:56;;;;;;;25.17;4.60;;;;;;;;;;4980772;28;20030;-67
2024/01/23 03:29:23;;;;;;;23.80;3.80;;;;;;;;;;4982073;28;20037;-68
2024/01/23 03:31:49;;;;;;;20.17;4.25;;;;;;;;;;4981042;28;20464;-68
2024/01/23 03:34:16;;;;;;;20.52;4.35;;;;;;;;;;4981789;28;20095;-68
2024/01/23 03:36:42;;;;;;;19.80;4.13;;;;;;;;;;4982201;28;20045;-68
2024/01/23 03:39:08;;;;;;;22.88;5.65;;;;;;;;;;4981330;28;20056;-68
2024/01/23 03:41:37;;;;;;;21.65;5.50;;;;;;;;;;4984068;28;20037;-68
2024/01/23 03:44:05;;;;;;;23.83;4.30;;;;;;;;;;4982121;28;20038;-68
2024/01/23 03:46:31;;;;;;;27.48;5.93;;;;;;;;;;4982730;28;20030;-68
2024/01/23 03:48:57;;;;;;;21.80;4.88;;;;;;;;;;4980559;28;20140;-68
2024/01/23 03:51:23;;;;;;;25.13;4.20;;;;;;;;;;4982590;28;20402;-68
2024/01/23 03:53:49;;;;;;;26.48;4.05;;;;;;;;;;4981051;28;20023;-68
2024/01/23 03:56:15;;;;;;;29.13;4.90;;;;;;;;;;4983243;28;20053;-68
2024/01/23 03:58:42;;;;;;;21.65;4.10;;;;;;;;;;4981395;28;20044;-68
2024/01/23 04:01:08;;;;;;;25.48;5.50;;;;;;;;;;4980540;28;20121;-68
2024/01/23 04:03:34;;;;;;;20.23;4.32;;;;;;;;;;4981344;28;20065;-68
2024/01/23 04:06:01;;;;;;;27.90;5.20;;;;;;;;;;4980551;28;20089;-68
2024/01/23 04:08:27;;;;;;;24.48;4.50;;;;;;;;;;4982778;28;20619;-68
2024/01/23 04:10:53;;;;;;;20.65;3.83;;;;;;;;;;4981080;28;20051;-68
2024/01/23 04:13:19;;;;;;;22.60;4.90;;;;;;;;;;4981981;28;20027;-68
2024/01/23 04:15:45;;;;;;;21.73;4.60;;;;;;;;;;4981380;28;20030;-68
2024/01/23 04:18:11;;;;;;;28.05;5.13;;;;;;;;;;4981977;28;20038;-68
2024/01/23 04:20:38;;;;;;;28.40;5.03;;;;;;;;;;4980233;28;20104;-68
2024/01/23 04:23:04;;;;;;;24.40;4.78;;;;;;;;;;4982057;28;20041;-68
2024/01/23 04:25:30;;;;;;;25.00;4.30;;;;;;;;;;4981086;28;20033;-68
2024/01/23 04:27:57;;;;;;;20.90;4.18;;;;;;;;;;4964621;28;21927;-68
2024/01/23 04:30:23;;;;;;;25.23;4.35;;;;;;;;;;4981406;28;20112;-68
2024/01/23 04:32:49;;;;;;;25.05;4.38;;;;;;;;;;4981191;28;21362;-68
2024/01/23 04:35:16;;;;;;;32.97;5.25;;;;;;;;;;4980318;28;20030;-68
2024/01/23 04:37:42;;;;;;;27.63;5.95;;;;;;;;;;4980287;28;20517;-68
2024/01/23 04:40:08;;;;;;;22.33;4.72;;;;;;;;;;4981698;28;20241;-68
2024/01/23 04:42:35;;;;;;;19.15;4.25;;;;;;;;;;4981115;28;20087;-68
2024/01/23 04:45:01;;;;;;;26.20;5.13;;;;;;;;;;4982068;28;20041;-68
2024/01/23 04:47:27;;;;;;;27.00;4.65;;;;;;;;;;4980624;28;20026;-68
2024/01/23 04:49:53;;;;;;;32.42;6.00;;;;;;;;;;4981805;28;20080;-68
2024/01/23 04:52:19;;;;;;;23.75;5.65;;;;;;;;;;4980256;28;20689;-68
2024/01/23 04:54:45;;;;;;;30.63;6.38;;;;;;;;;;4981833;28;20095;-68
2024/01/23 04:57:14;;;;;;;33.40;5.22;;;;;;;;;;4980804;28;20046;-68
2024/01/23 04:59:40;;;;;;;28.88;5.32;;;;;;;;;;4982116;28;20031;-68
2024/01/23 05:02:06;;;;;;;33.33;5.47;;;;;;;;;;4978522;28;20125;-68
2024/01/23 05:04:32;;;;;;;25.52;4.15;;;;;;;;;;4981848;28;20129;-68
2024/01/23 05:06:58;;;;;;;24.83;4.78;;;;;;;;;;4981116;28;20999;-68
2024/01/23 05:09:24;;;;;;;24.73;5.65;;;;;;;;;;4979072;28;21949;-68
2024/01/23 05:11:50;;;;;;;22.15;4.47;;;;;;;;;;4981166;28;20125;-68
2024/01/23 05:14:17;;;;;;;25.75;5.20;;;;;;;;;;4979739;28;20084;-68
2024/01/23 05:16:43;;;;;;;25.27;5.18;;;;;;;;;;4981092;28;20056;-68
2024/01/23 05:19:09;;;;;;;30.30;5.13;;;;;;;;;;4979164;28;20793;-68
2024/01/23 05:21:36;;;;;;;24.80;4.80;;;;;;;;;;4964817;28;20038;-68
2024/01/23 05:24:05;;;;;;;30.75;5.10;;;;;;;;;;4979722;28;20093;-68
2024/01/23 05:26:31;;;;;;;30.92;5.50;;;;;;;;;;4986161;28;21812;-68
2024/01/23 05:28:57;;;;;;;30.00;5.22;;;;;;;;;;4987280;28;20132;-68
2024/01/23 05:31:23;;;;;;;26.10;5.03;;;;;;;;;;4986151;28;20795;-68
2024/01/23 05:33:49;;;;;;;31.00;5.57;;;;;;;;;;4986311;28;20029;-68
2024/01/23 05:36:15;;;;;;;22.63;4.78;;;;;;;;;;4986713;28;20052;-68
2024/01/23 05:38:42;;;;;;;23.65;4.72;;;;;;;;;;4985700;28;20046;-68
2024/01/23 05:41:08;;;;;;;33.33;6.07;;;;;;;;;;4985463;28;20043;-68
2024/01/23 05:43:34;;;;;;;26.30;5.15;;;;;;;;;;4986684;28;20041;-68
2024/01/23 05:46:00;;;;;;;23.77;5.47;;;;;;;;;;4986558;28;20046;-68
2024/01/23 05:48:27;;;;;;;34.38;4.80;;;;;;;;;;4988124;28;20536;-68
2024/01/23 05:50:53;;;;;;;35.78;5.80;;;;;;;;;;4986080;28;20076;-68
2024/01/23 05:53:19;;;;;;;30.60;5.22;;;;;;;;;;4986622;28;21243;-68
2024/01/23 05:55:45;;;;;;;34.90;6.10;;;;;;;;;;4986699;28;20713;-68
2024/01/23 05:58:12;;;;;;;30.98;6.18;;;;;;;;;;4986342;28;20038;-68
2024/01/23 06:00:38;;;;;;;32.80;6.85;;;;;;;;;;4985874;28;20027;-68
2024/01/23 06:03:04;;;;;;;30.85;5.38;;;;;;;;;;4986241;28;20030;-68
2024/01/23 06:05:30;;;;;;;31.83;5.82;;;;;;;;;;4986164;28;20831;-68
2024/01/23 06:07:56;;;;;;;31.85;5.60;;;;;;;;;;4984617;28;21090;-69
2024/01/23 06:10:23;;;;;;;34.47;6.00;;;;;;;;;;4984418;28;20030;-69
2024/01/23 06:12:49;;;;;;;27.92;5.18;;;;;;;;;;4983327;28;20376;-69
2024/01/23 06:15:15;;;;;;;32.88;5.82;;;;;;;;;;4984670;28;20045;-69
2024/01/23 06:17:41;;;;;;;29.50;5.82;;;;;;;;;;4983933;28;20030;-69
2024/01/23 06:20:08;;;;;;;25.80;5.65;;;;;;;;;;4984101;28;20508;-69
2024/01/23 06:22:35;;;;;;;29.55;5.10;;;;;;;;;;4983011;28;20129;-69
2024/01/23 06:25:01;;;;;;;33.80;5.85;;;;;;;;;;4980507;28;20034;-69
2024/01/23 06:27:27;;;;;;;34.22;5.43;;;;;;;;;;4984262;28;20026;-69
2024/01/23 06:29:53;;;;;;;36.28;6.78;;;;;;;;;;4982748;28;20011;-69
2024/01/23 06:32:19;;;;;;;27.65;6.32;;;;;;;;;;4983958;28;20034;-69
2024/01/23 06:34:45;;;;;;;32.70;5.50;;;;;;;;;;4982755;28;20037;-69
2024/01/23 06:37:11;;;;;;;34.28;6.80;;;;;;;;;;4980475;28;20042;-69
2024/01/23 06:39:38;;;;;;;32.72;6.20;;;;;;;;;;4980485;28;20038;-69
2024/01/23 06:42:04;;;;;;;32.40;5.57;;;;;;;;;;4980401;28;20029;-70
2024/01/23 06:44:30;;;;;;;32.90;5.65;;;;;;;;;;4980635;28;20049;-70
2024/01/23 06:46:56;;;;;;;27.45;5.43;;;;;;;;;;4978838;28;20189;-70
2024/01/23 06:49:22;;;;;;;32.60;5.70;;;;;;;;;;4946645;28;20034;-70
2024/01/23 06:51:48;;;;;;;35.10;7.47;;;;;;;;;;4980472;28;20026;-70
2024/01/23 06:54:14;;;;;;;32.55;7.07;;;;;;;;;;4979695;28;20034;-70
2024/01/23 06:56:41;;;;;;;36.22;5.72;;;;;;;;;;4964774;28;20049;-69
2024/01/23 06:59:08;;;;;;;36.70;6.68;;;;;;;;;;4979885;28;20056;-70
2024/01/23 07:01:34;;;;;;;35.55;9.02;;;;;;;;;;4980734;28;20029;-69
2024/01/23 07:04:00;;;;;;;36.00;5.32;;;;;;;;;;4979836;28;20115;-70
2024/01/23 07:06:26;;;;;;;36.47;6.93;;;;;;;;;;4980886;28;20702;-69
2024/01/23 07:08:53;;;;;;;34.17;7.63;;;;;;;;;;4979401;28;20031;-69
2024/01/23 07:11:20;;;;;;;32.10;5.75;;;;;;;;;;4964013;28;20042;-69
2024/01/23 07:13:46;;;;;;;35.17;5.88;;;;;;;;;;4980425;28;20082;-69
2024/01/23 07:16:12;;;;;;;31.33;5.32;;;;;;;;;;4978166;28;20037;-69
2024/01/23 07:18:38;;;;;;;31.50;6.47;;;;;;;;;;4980329;28;20055;-69
2024/01/23 07:21:05;;;;;;;40.53;5.75;;;;;;;;;;4979371;28;21179;-69
2024/01/23 07:23:31;;;;;;;37.28;6.13;;;;;;;;;;4981345;28;20046;-69
2024/01/23 07:25:58;;;;;;;30.20;6.22;;;;;;;;;;4979568;28;20038;-69
2024/01/23 07:28:24;;;;;;;29.25;6.07;;;;;;;;;;4980818;28;20030;-70
2024/01/23 07:30:51;;;;;;;34.10;6.32;;;;;;;;;;4979505;28;20034;-70
2024/01/23 07:33:17;;;;;;;27.45;6.50;;;;;;;;;;4979425;28;20107;-69
2024/01/23 07:35:43;;;;;;;45.92;7.28;;;;;;;;;;4979070;28;20056;-69
2024/01/23 07:38:11;;;;;;;28.20;5.90;;;;;;;;;;4963069;28;20034;-69
2024/01/23 07:40:41;;;;;;;37.33;7.03;;;;;;;;;;4979966;28;20052;-70
2024/01/23 07:43:07;;;;;;;32.47;5.90;;;;;;;;;;4980201;28;20030;-69
2024/01/23 07:45:33;;;;;;;37.67;7.15;;;;;;;;;;4979285;28;20532;-69
2024/01/23 07:47:59;;;;;;;32.00;6.10;;;;;;;;;;4979610;28;20026;-69
2024/01/23 07:50:27;;;;;;;40.30;5.95;;;;;;;;;;4977260;28;20023;-70
2024/01/23 07:52:53;;;;;;;23.67;5.72;;;;;;;;;;4978411;28;20026;-70
2024/01/23 07:55:19;;;;;;;34.67;5.70;;;;;;;;;;4979903;28;20038;-70
2024/01/23 07:57:45;;;;;;;32.30;6.80;;;;;;;;;;4978653;28;20417;-69
2024/01/23 08:00:17;;;;;;;30.73;5.60;;;;;;;;;;4980558;28;20052;-69
2024/01/23 08:02:43;;;;;;;32.30;5.72;;;;;;;;;;4977971;28;20416;-70
2024/01/23 08:05:09;;;;;;;34.85;5.68;;;;;;;;;;4979542;28;20034;-69
2024/01/23 08:07:35;;;;;;;31.85;6.00;;;;;;;;;;4977570;28;20045;-69
2024/01/23 08:10:01;;;;;;;33.58;6.32;;;;;;;;;;4979988;28;20520;-70
2024/01/23 08:12:27;;;;;;;38.17;5.47;;;;;;;;;;4978722;28;20812;-69
2024/01/23 08:14:53;;;;;;;36.42;7.13;;;;;;;;;;4979554;28;20042;-69
2024/01/23 08:17:19;;;;;;;31.88;6.88;;;;;;;;;;4978308;28;21785;-69
2024/01/23 08:19:45;;;;;;;43.67;7.07;;;;;;;;;;4978993;28;20041;-69
2024/01/23 08:22:12;;;;;;;32.08;6.43;;;;;;;;;;4978858;28;20039;-69
2024/01/23 08:24:38;;;;;;;31.80;5.28;;;;;;;;;;4978580;28;20379;-69
2024/01/23 08:27:04;;;;;;;37.30;6.28;;;;;;;;;;4979415;28;20030;-69
2024/01/23 08:29:30;;;;;;;36.72;6.70;;;;;;;;;;4970015;28;20137;-70
2024/01/23 08:31:56;;;;;;;37.60;6.78;;;;;;;;;;4969379;28;20113;-70
2024/01/23 08:34:23;;;;;;;34.60;5.72;;;;;;;;;;4968538;28;20030;-70
2024/01/23 08:36:49;;;;;;;34.65;5.80;;;;;;;;;;4970100;28;20545;-70
2024/01/23 08:39:16;;;;;;;37.17;5.47;;;;;;;;;;4969410;28;20026;-69
2024/01/23 08:41:42;;;;;;;36.17;6.57;;;;;;;;;;4969320;28;20544;-69
2024/01/23 08:44:08;;;;;;;29.95;5.60;;;;;;;;;;4969995;28;20603;-69
2024/01/23 08:46:34;;;;;;;32.28;6.25;;;;;;;;;;4970076;28;20104;-70
2024/01/23 08:49:00;;;;;;;27.00;6.55;;;;;;;;;;4971251;28;20095;-69
2024/01/23 08:51:28;;;;;;;32.53;6.82;;;;;;;;;;4969185;28;20417;-69
2024/01/23 08:53:54;;;;;;;35.85;7.18;;;;;;;;;;4970784;28;20152;-70
2024/01/23 08:56:21;;;;;;;31.65;6.50;;;;;;;;;;4969647;28;20045;-69
2024/01/23 08:58:47;;;;;;;22.25;5.00;;;;;;;;;;4969556;28;20033;-69
2024/01/23 09:01:13;;;;;;;21.92;6.43;;;;;;;;;;4969460;28;20037;-70
2024/01/23 09:03:40;;;;;;;35.97;6.38;;;;;;;;;;4971129;28;20070;-69
2024/01/23 09:06:06;;;;;;;27.58;5.10;;;;;;;;;;4968973;28;20038;-70
2024/01/23 09:08:32;;;;;;;39.70;7.25;;;;;;;;;;4970840;28;20490;-70
2024/01/23 09:10:58;;;;;;;38.25;5.97;;;;;;;;;;4941334;28;20974;-70
2024/01/23 09:13:24;;;;;;;31.80;5.97;;;;;;;;;;4969440;28;20031;-70
2024/01/23 09:15:50;;;;;;;28.45;6.03;;;;;;;;;;4969641;28;20048;-70
2024/01/23 09:18:16;;;;;;;25.63;5.88;;;;;;;;;;4970186;28;20033;-70
2024/01/23 09:20:42;;;;;;;38.15;6.28;;;;;;;;;;4971733;28;20093;-70
2024/01/23 09:23:08;;;;;;;28.77;5.72;;;;;;;;;;4970616;28;20057;-70
2024/01/23 09:25:34;;;;;;;40.25;6.75;;;;;;;;;;4971687;28;20100;-70
2024/01/23 09:28:01;;;;;;;25.48;5.70;;;;;;;;;;4969383;28;20603;-70
2024/01/23 09:30:28;;;;;;;21.80;5.13;;;;;;;;;;4971544;28;20034;-70
2024/01/23 09:32:54;;;;;;;29.80;5.63;;;;;;;;;;4969622;28;20379;-70
2024/01/23 09:35:20;;;;;;;43.38;6.97;;;;;;;;;;4971006;28;20616;-70
2024/01/23 09:37:46;;;;;;;34.03;7.53;;;;;;;;;;4971608;28;20925;-70
2024/01/23 09:40:12;;;;;;;32.03;5.93;;;;;;;;;;4971192;28;20038;-70
2024/01/23 09:42:39;;;;;;;24.65;5.57;;;;;;;;;;4970894;28;20035;-70
2024/01/23 09:45:10;;;;;;;28.98;6.30;;;;;;;;;;4971013;28;20038;-70
2024/01/23 09:47:36;;;;;;;30.15;6.75;;;;;;;;;;4970352;28;20031;-70
2024/01/23 09:50:03;;;;;;;28.23;6.20;;;;;;;;;;4970650;28;20092;-70
2024/01/23 09:52:29;;;;;;;36.13;7.45;;;;;;;;;;4970132;28;20106;-70
2024/01/23 09:54:56;;;;;;;38.63;7.90;;;;;;;;;;4971641;28;20034;-70
2024/01/23 09:57:22;;;;;;;27.33;6.55;;;;;;;;;;4970775;28;20038;-70
2024/01/23 09:59:48;;;;;;;32.67;6.10;;;;;;;;;;4952730;28;20034;-70
2024/01/23 10:02:14;;;;;;;35.40;6.68;;;;;;;;;;4969801;28;20041;-70
2024/01/23 10:04:42;;;;;;;27.17;6.20;;;;;;;;;;4970314;28;20053;-70
2024/01/23 10:07:08;;;;;;;28.70;6.55;;;;;;;;;;4970870;28;20065;-70
2024/01/23 10:09:34;;;;;;;32.47;7.05;;;;;;;;;;4970024;28;20679;-70
2024/01/23 10:12:00;;;;;;;32.40;7.07;;;;;;;;;;4973858;28;20124;-70
2024/01/23 10:14:26;;;;;;;45.65;7.05;;;;;;;;;;4957788;28;20042;-70
2024/01/23 10:16:52;;;;;;;31.02;5.78;;;;;;;;;;4974761;28;20040;-70
2024/01/23 10:19:18;;;;;;;30.73;6.07;;;;;;;;;;4974271;28;20073;-70
2024/01/23 10:21:46;;;;;;;28.25;5.80;;;;;;;;;;4975107;28;20034;-70
2024/01/23 10:24:12;;;;;;;23.38;5.60;;;;;;;;;;4978142;28;20174;-70
2024/01/23 10:26:38;;;;;;;31.35;5.63;;;;;;;;;;4977653;28;20042;-70
2024/01/23 10:29:04;;;;;;;33.03;5.80;;;;;;;;;;4978311;28;20018;-70
2024/01/23 10:31:30;;;;;;;34.08;6.57;;;;;;;;;;4978349;28;20037;-70
2024/01/23 10:33:59;;;;;;;28.60;5.55;;;;;;;;;;4978563;28;20673;-71
2024/01/23 10:36:27;;;;;;;25.90;6.32;;;;;;;;;;4977881;28;20120;-71
2024/01/23 10:38:54;;;;;;;25.25;5.70;;;;;;;;;;4978172;28;20750;-70
2024/01/23 10:41:21;;;;;;;25.92;5.93;;;;;;;;;;4979643;28;20026;-71
2024/01/23 10:43:48;;;;;;;31.63;6.32;;;;;;;;;;4977951;28;20049;-70
2024/01/23 10:46:14;;;;;;;29.25;6.20;;;;;;;;;;4977925;28;20041;-70
2024/01/23 10:48:40;;;;;;;23.95;5.35;;;;;;;;;;4978128;28;20030;-70
2024/01/23 10:51:15;;;;;;;27.63;5.97;;;;;;;;;;4978672;28;21868;-70
2024/01/23 10:53:48;;;;;;;37.00;6.18;;;;;;;;;;4978258;28;20034;-70
2024/01/23 10:56:14;;;;;;;23.83;5.65;;;;;;;;;;4965259;28;20029;-71
2024/01/23 10:58:42;;;;;;;36.08;7.22;;;;;;;;;;4976167;28;20025;-70
2024/01/23 11:01:11;;;;;;;28.27;5.80;;;;;;;;;;4978376;28;20034;-71
2024/01/23 11:03:38;;;;;;;31.95;7.80;;;;;;;;;;4978346;28;20034;-71
2024/01/23 11:06:15;;;;;;;31.20;6.68;;;;;;;;;;4978171;28;20034;-70
2024/01/23 11:08:52;;;;;;;35.05;6.70;;;;;;;;;;4977710;28;20084;-70
2024/01/23 11:11:35;;;;;;;33.90;6.95;;;;;;;;;;4977880;28;20057;-71
2024/01/23 11:14:21;;;;;;;28.33;7.35;;;;;;;;;;4976376;28;20030;-70
2024/01/23 11:17:06;;;;;;;29.73;5.97;;;;;;;;;;4977120;28;20608;-70
2024/01/23 11:19:40;;;;;;;31.10;5.90;;;;;;;;;;4976588;28;20057;-70
2024/01/23 11:22:06;;;;;;;35.75;6.50;;;;;;;;;;4976855;28;20030;-70
2024/01/23 11:24:39;;;;;;;27.80;5.80;;;;;;;;;;4975187;28;20176;-70
2024/01/23 11:27:05;;;;;;;29.70;5.25;;;;;;;;;;4977677;28;20034;-70
2024/01/23 11:29:32;;;;;;;32.53;6.43;;;;;;;;;;4976749;28;20030;-70
2024/01/23 11:31:58;;;;;;;25.35;5.45;;;;;;;;;;4977365;28;20431;-70
2024/01/23 11:34:24;;;;;;;31.70;6.63;;;;;;;;;;4977072;28;20026;-70
2024/01/23 11:36:50;;;;;;;25.65;5.53;;;;;;;;;;4977156;28;20091;-69
2024/01/23 11:39:16;;;;;;;26.25;5.97;;;;;;;;;;4976885;28;20939;-69
2024/01/23 11:41:49;;;;;;;31.20;5.57;;;;;;;;;;4958704;28;21108;-69
2024/01/23 11:44:16;;;;;;;26.23;5.68;;;;;;;;;;4976314;28;20030;-69
2024/01/23 11:46:43;;;;;;;23.67;5.03;;;;;;;;;;4976581;28;20199;-69
2024/01/23 11:49:10;;;;;;;34.80;6.15;;;;;;;;;;4976724;28;20038;-68
2024/01/23 11:51:36;;;;;;;25.70;4.50;;;;;;;;;;4974641;28;20037;-69
2024/01/23 11:54:05;;;;;;;20.08;6.03;;;;;;;;;;4976730;28;20065;-69
2024/01/23 11:56:31;;;;;;;35.92;7.95;;;;;;;;;;4976435;28;20729;-68
2024/01/23 11:58:58;;;;;;;34.00;7.18;;;;;;;;;;4975948;28;21288;-68
2024/01/23 12:01:27;;;;;;;29.60;6.97;;;;;;;;;;4975930;28;20153;-69
2024/01/23 12:03:54;;;;;;;34.13;6.22;;;;;;;;;;4976195;28;20033;-69
2024/01/23 12:06:22;;;;;;;30.23;5.15;;;;;;;;;;4974480;28;20030;-69
2024/01/23 12:08:48;;;;;;;37.15;6.43;;;;;;;;;;4976504;28;20812;-68
2024/01/23 12:11:15;;;;;;;25.20;5.22;;;;;;;;;;4976797;28;20903;-68
2024/01/23 12:13:51;;;;;;;23.30;5.22;;;;;;;;;;4976333;28;21798;-68
2024/01/23 12:16:18;;;;;;;28.58;5.63;;;;;;;;;;4975974;28;20026;-68
2024/01/23 12:18:45;;;;;;;34.95;6.50;;;;;;;;;;4975918;28;20034;-69
2024/01/23 12:21:11;;;;;;;31.40;4.90;;;;;;;;;;4976428;28;20398;-68
2024/01/23 12:23:38;;;;;;;24.10;5.22;;;;;;;;;;4964464;28;20129;-68
2024/01/23 12:26:04;;;;;;;29.50;4.78;;;;;;;;;;4952162;28;22000;-69
2024/01/23 12:28:33;;;;;;;29.40;5.68;;;;;;;;;;4951214;28;20030;-69
2024/01/23 12:30:59;;;;;;;24.92;5.25;;;;;;;;;;4952336;28;20026;-69
2024/01/23 12:33:26;;;;;;;19.35;4.70;;;;;;;;;;4952017;28;20037;-69
2024/01/23 12:35:52;;;;;;;23.33;5.65;;;;;;;;;;4949925;28;21052;-69
2024/01/23 12:38:20;;;;;;;31.98;6.95;;;;;;;;;;4952218;28;20033;-69
2024/01/23 12:40:47;;;;;;;30.95;6.45;;;;;;;;;;4952093;28;20119;-69
2024/01/23 12:43:14;;;;;;;28.10;6.80;;;;;;;;;;4953194;28;20946;-69
2024/01/23 12:45:40;;;;;;;25.08;5.15;;;;;;;;;;4950803;28;20089;-69
2024/01/23 12:48:10;;;;;;;28.45;4.88;;;;;;;;;;4952738;28;20026;-69
2024/01/23 12:50:37;;;;;;;29.30;6.60;;;;;;;;;;4951431;28;20031;-69
2024/01/23 12:53:04;;;;;;;24.10;5.63;;;;;;;;;;4951881;28;20146;-68
2024/01/23 12:55:32;;;;;;;25.25;4.90;;;;;;;;;;4951340;28;20034;-69
2024/01/23 12:57:59;;;;;;;30.90;8.40;;;;;;;;;;4951117;28;20113;-69
2024/01/23 13:00:25;;;;;;;23.70;5.05;;;;;;;;;;4951236;28;21394;-69
2024/01/23 13:02:55;;;;;;;22.08;4.85;;;;;;;;;;4952689;28;20034;-69
2024/01/23 13:05:22;;;;;;;27.13;5.78;;;;;;;;;;4950810;28;20645;-70
2024/01/23 13:07:52;;;;;;;29.58;5.70;;;;;;;;;;4951350;28;20038;-69
2024/01/23 13:10:18;;;;;;;24.00;5.38;;;;;;;;;;4951958;28;21026;-69
2024/01/23 13:12:45;;;;;;;25.45;4.95;;;;;;;;;;4950964;28;20069;-69
2024/01/23 13:15:11;;;;;;;25.83;5.45;;;;;;;;;;4952415;28;20653;-69
2024/01/23 13:17:37;;;;;;;25.02;5.68;;;;;;;;;;4951893;28;20042;-69
2024/01/23 13:20:09;;;;;;;23.85;4.97;;;;;;;;;;4952447;28;20035;-69
2024/01/23 13:22:36;;;;;;;24.10;4.93;;;;;;;;;;4951861;28;20090;-69
2024/01/23 13:25:02;;;;;;;22.30;4.55;;;;;;;;;;4951941;28;20058;-69
2024/01/23 13:27:28;;;;;;;21.15;4.80;;;;;;;;;;4951712;28;20041;-69
2024/01/23 13:29:54;;;;;;;24.42;4.57;;;;;;;;;;4950619;28;20034;-69
2024/01/23 13:32:22;;;;;;;23.17;5.63;;;;;;;;;;4951553;28;20046;-69
2024/01/23 13:34:48;;;;;;;30.17;4.80;;;;;;;;;;4951078;28;20037;-69
2024/01/23 13:37:14;;;;;;;26.65;5.03;;;;;;;;;;4950063;28;20035;-69
2024/01/23 13:39:40;;;;;;;26.13;5.43;;;;;;;;;;4950903;28;20089;-69
2024/01/23 13:42:06;;;;;;;28.75;5.25;;;;;;;;;;4949233;28;20037;-69
2024/01/23 13:44:32;;;;;;;26.15;5.60;;;;;;;;;;4952172;28;20031;-69
2024/01/23 13:46:58;;;;;;;33.80;5.32;;;;;;;;;;4952097;28;20026;-69
2024/01/23 13:49:24;;;;;;;27.20;4.60;;;;;;;;;;4938206;28;20027;-69
2024/01/23 13:51:50;;;;;;;23.88;5.18;;;;;;;;;;4954680;28;20616;-69
2024/01/23 13:54:16;;;;;;;22.23;4.88;;;;;;;;;;4954365;28;20035;-69
2024/01/23 13:56:42;;;;;;;22.25;5.35;;;;;;;;;;4953917;28;20034;-69
2024/01/23 13:59:09;;;;;;;30.85;4.70;;;;;;;;;;4953760;28;20947;-69
2024/01/23 14:01:38;;;;;;;28.08;5.50;;;;;;;;;;4951802;28;20056;-69
2024/01/23 14:04:06;;;;;;;26.33;4.38;;;;;;;;;;4953221;28;20027;-69
2024/01/23 14:06:32;;;;;;;26.25;5.90;;;;;;;;;;4953577;28;20104;-69
2024/01/23 14:08:58;;;;;;;25.95;4.55;;;;;;;;;;4952930;28;20034;-69
2024/01/23 14:11:24;;;;;;;26.52;5.50;;;;;;;;;;4954169;28;20129;-69
2024/01/23 14:13:51;;;;;;;31.80;5.38;;;;;;;;;;4952659;28;21012;-69
2024/01/23 14:16:17;;;;;;;30.48;6.15;;;;;;;;;;4955398;28;20034;-69
2024/01/23 14:18:43;;;;;;;42.53;7.05;;;;;;;;;;4953084;28;20054;-68
2024/01/23 14:21:11;;;;;;;19.02;4.80;;;;;;;;;;4954940;28;20862;-69
2024/01/23 14:23:37;;;;;;;26.45;4.68;;;;;;;;;;4952985;28;20045;-69
2024/01/23 14:26:03;;;;;;;21.95;4.53;;;;;;;;;;4953701;28;20046;-69
2024/01/23 14:28:29;;;;;;;28.40;4.70;;;;;;;;;;4953321;28;20065;-69